createdAt,value
2017-12-27T00:00:31.507Z,5.45
2017-12-27T00:02:24.406Z,5.42
2017-12-27T00:03:24.426Z,5.46
2017-12-27T00:05:19.354Z,5.39
2017-12-27T00:06:19.354Z,5.33
2017-12-27T00:08:13.504Z,5.39
2017-12-27T00:09:13.518Z,5.38
2017-12-27T00:11:06.437Z,5.40
2017-12-27T00:12:06.433Z,5.48
2017-12-27T00:13:59.328Z,5.42
2017-12-27T00:14:59.343Z,5.40
2017-12-27T00:16:52.257Z,5.38
2017-12-27T00:17:52.252Z,5.40
2017-12-27T00:19:46.176Z,5.45
2017-12-27T00:20:46.168Z,5.48
2017-12-27T00:22:39.064Z,5.49
2017-12-27T00:23:39.078Z,5.48
2017-12-27T00:25:32.075Z,5.48
2017-12-27T00:26:31.990Z,5.51
2017-12-27T00:28:24.883Z,5.53
2017-12-27T00:29:24.898Z,5.57
2017-12-27T00:31:17.810Z,5.56
2017-12-27T00:32:17.807Z,5.51
2017-12-27T00:34:10.703Z,5.53
2017-12-27T00:35:10.715Z,5.48
2017-12-27T00:37:03.631Z,5.49
2017-12-27T00:38:03.631Z,5.49
2017-12-27T00:39:56.559Z,5.42
2017-12-27T00:40:56.536Z,5.42
2017-12-27T00:42:49.434Z,5.42
2017-12-27T00:43:49.451Z,5.36
2017-12-27T00:45:42.389Z,5.28
2017-12-27T00:46:42.358Z,5.36
2017-12-27T00:48:35.257Z,5.33
2017-12-27T00:49:35.269Z,5.28
2017-12-27T00:51:28.362Z,5.33
2017-12-27T00:52:28.355Z,5.38
2017-12-27T00:54:21.252Z,5.35
2017-12-27T00:55:21.267Z,5.20
2017-12-27T00:57:14.181Z,5.22
2017-12-27T00:58:14.176Z,5.27
2017-12-27T01:00:07.103Z,5.20
2017-12-27T01:01:07.087Z,5.17
2017-12-27T01:03:00.476Z,5.17
2017-12-27T01:04:00.495Z,5.09
2017-12-27T01:05:53.414Z,5.15
2017-12-27T01:06:53.404Z,5.18
2017-12-27T01:08:46.469Z,5.15
2017-12-27T01:09:46.485Z,5.22
2017-12-27T01:11:39.402Z,5.22
2017-12-27T01:12:39.398Z,5.25
2017-12-27T01:14:32.292Z,5.22
2017-12-27T01:15:32.306Z,5.22
2017-12-27T01:17:25.224Z,5.25
2017-12-27T01:18:25.221Z,5.36
2017-12-27T01:20:18.141Z,5.40
2017-12-27T01:21:18.132Z,5.33
2017-12-27T01:23:11.236Z,5.40
2017-12-27T01:24:11.251Z,5.27
2017-12-27T01:26:04.370Z,5.31
2017-12-27T01:27:04.364Z,5.30
2017-12-27T01:28:57.257Z,5.22
2017-12-27T01:29:57.269Z,5.20
2017-12-27T01:31:50.184Z,5.28
2017-12-27T01:32:50.183Z,5.30
2017-12-27T01:34:43.075Z,5.30
2017-12-27T01:35:43.088Z,5.27
2017-12-27T01:37:36.011Z,5.28
2017-12-27T01:38:36.005Z,5.27
2017-12-27T01:40:28.919Z,5.30
2017-12-27T01:41:28.915Z,5.27
2017-12-27T01:43:22.808Z,5.31
2017-12-27T01:44:23.372Z,5.35
2017-12-27T01:46:15.738Z,5.35
2017-12-27T01:47:15.735Z,5.31
2017-12-27T01:49:08.628Z,5.22
2017-12-27T01:50:08.645Z,5.30
2017-12-27T01:52:01.556Z,5.35
2017-12-27T01:53:01.555Z,5.31
2017-12-27T01:54:54.447Z,5.25
2017-12-27T01:55:54.464Z,5.17
2017-12-27T01:57:47.873Z,5.27
2017-12-27T01:58:47.865Z,5.21
2017-12-27T02:00:40.785Z,5.20
2017-12-27T02:01:40.780Z,5.21
2017-12-27T02:03:33.686Z,5.20
2017-12-27T02:04:33.691Z,5.21
2017-12-27T02:06:33.729Z,5.18
2017-12-27T02:07:26.603Z,5.20
2017-12-27T02:09:19.525Z,5.18
2017-12-27T02:10:19.517Z,5.12
2017-12-27T02:12:12.432Z,5.12
2017-12-27T02:13:12.426Z,5.09
2017-12-27T02:15:05.327Z,5.04
2017-12-27T02:16:05.335Z,5.02
2017-12-27T02:17:58.253Z,5.09
2017-12-27T02:18:58.246Z,5.03
2017-12-27T02:20:51.166Z,5.02
2017-12-27T02:21:51.156Z,5.09
2017-12-27T02:23:44.071Z,5.06
2017-12-27T02:24:44.066Z,5.02
2017-12-27T02:26:37.180Z,5.00
2017-12-27T02:27:37.179Z,5.00
2017-12-27T02:29:30.586Z,5.00
2017-12-27T02:30:30.591Z,4.86
2017-12-27T02:32:23.514Z,4.89
2017-12-27T02:33:23.489Z,4.94
2017-12-27T02:35:16.398Z,4.89
2017-12-27T02:36:16.399Z,4.92
2017-12-27T02:38:09.314Z,4.96
2017-12-27T02:39:09.309Z,4.89
2017-12-27T02:41:02.232Z,4.89
2017-12-27T02:42:02.218Z,4.88
2017-12-27T02:43:55.178Z,4.85
2017-12-27T02:44:55.177Z,4.92
2017-12-27T02:46:48.039Z,4.96
2017-12-27T02:47:48.129Z,4.96
2017-12-27T02:49:40.946Z,4.99
2017-12-27T02:50:40.971Z,4.96
2017-12-27T02:52:33.876Z,4.96
2017-12-27T02:53:33.868Z,5.02
2017-12-27T02:55:26.834Z,5.00
2017-12-27T02:56:26.815Z,5.00
2017-12-27T02:58:19.710Z,5.07
2017-12-27T02:59:19.853Z,5.09
2017-12-27T03:01:12.640Z,5.12
2017-12-27T03:02:12.632Z,5.09
2017-12-27T03:04:05.552Z,5.02
2017-12-27T03:05:05.653Z,5.03
2017-12-27T03:06:58.498Z,5.12
2017-12-27T03:07:58.518Z,5.02
2017-12-27T03:09:52.388Z,5.12
2017-12-27T03:10:52.413Z,5.12
2017-12-27T03:12:45.325Z,5.10
2017-12-27T03:13:45.320Z,5.09
2017-12-27T03:15:38.314Z,5.20
2017-12-27T03:16:38.266Z,5.13
2017-12-27T03:18:31.166Z,5.27
2017-12-27T03:19:31.198Z,5.21
2017-12-27T03:21:24.252Z,5.20
2017-12-27T03:22:24.246Z,5.31
2017-12-27T03:24:17.142Z,5.27
2017-12-27T03:25:17.157Z,5.31
2017-12-27T03:27:10.105Z,5.33
2017-12-27T03:28:10.092Z,5.35
2017-12-27T03:30:02.994Z,5.39
2017-12-27T03:31:02.999Z,5.46
2017-12-27T03:32:55.916Z,5.42
2017-12-27T03:33:55.910Z,5.45
2017-12-27T03:35:48.803Z,5.46
2017-12-27T03:36:48.818Z,5.43
2017-12-27T03:38:41.736Z,5.46
2017-12-27T03:39:41.726Z,5.40
2017-12-27T03:41:34.642Z,5.40
2017-12-27T03:42:34.642Z,5.49
2017-12-27T03:44:27.546Z,5.53
2017-12-27T03:45:27.547Z,5.53
2017-12-27T03:47:20.966Z,5.48
2017-12-27T03:48:20.965Z,5.51
2017-12-27T03:50:14.067Z,5.61
2017-12-27T03:51:14.062Z,5.61
2017-12-27T03:53:06.997Z,5.61
2017-12-27T03:54:06.982Z,5.65
2017-12-27T03:55:59.879Z,5.75
2017-12-27T03:56:59.898Z,5.75
2017-12-27T03:58:52.812Z,5.76
2017-12-27T03:59:52.808Z,5.78
2017-12-27T04:01:45.725Z,5.78
2017-12-27T04:02:45.719Z,5.85
2017-12-27T04:04:38.613Z,5.79
2017-12-27T04:05:38.632Z,5.81
2017-12-27T04:07:31.555Z,5.81
2017-12-27T04:08:31.548Z,5.90
2017-12-27T04:10:24.445Z,5.97
2017-12-27T04:11:24.458Z,5.91
2017-12-27T04:13:17.376Z,5.97
2017-12-27T04:14:17.372Z,5.85
2017-12-27T04:16:10.268Z,5.82
2017-12-27T04:17:10.283Z,5.89
2017-12-27T04:19:03.199Z,5.90
2017-12-27T04:20:03.193Z,5.91
2017-12-27T04:21:56.113Z,5.99
2017-12-27T04:22:56.109Z,6.04
2017-12-27T04:24:49.005Z,5.99
2017-12-27T04:25:49.021Z,5.94
2017-12-27T04:27:41.936Z,6.06
2017-12-27T04:28:41.930Z,6.08
2017-12-27T04:30:34.830Z,5.97
2017-12-27T04:31:34.843Z,6.12
2017-12-27T04:33:27.763Z,6.14
2017-12-27T04:34:27.765Z,6.15
2017-12-27T04:36:20.651Z,6.14
2017-12-27T04:37:20.666Z,6.14
2017-12-27T04:39:13.581Z,6.09
2017-12-27T04:40:13.578Z,6.27
2017-12-27T04:42:06.501Z,6.21
2017-12-27T04:43:06.491Z,6.15
2017-12-27T04:44:59.391Z,6.21
2017-12-27T04:45:59.425Z,6.18
2017-12-27T04:47:52.322Z,6.12
2017-12-27T04:48:52.317Z,6.14
2017-12-27T04:50:45.213Z,6.15
2017-12-27T04:51:45.259Z,6.27
2017-12-27T04:53:38.152Z,6.17
2017-12-27T04:54:38.148Z,6.21
2017-12-27T04:56:31.036Z,6.27
2017-12-27T04:57:31.051Z,6.34
2017-12-27T04:59:23.967Z,6.34
2017-12-27T05:00:23.977Z,6.25
2017-12-27T05:02:16.878Z,6.18
2017-12-27T05:03:16.873Z,6.19
2017-12-27T05:05:09.766Z,6.15
2017-12-27T05:06:09.785Z,6.17
2017-12-27T05:08:02.700Z,6.15
2017-12-27T05:09:02.700Z,6.14
2017-12-27T05:10:55.597Z,6.11
2017-12-27T05:11:55.621Z,6.06
2017-12-27T05:13:48.526Z,6.18
2017-12-27T05:14:48.533Z,6.22
2017-12-27T05:16:41.655Z,6.21
2017-12-27T05:17:41.665Z,6.21
2017-12-27T05:19:34.588Z,6.30
2017-12-27T05:20:34.582Z,6.18
2017-12-27T05:22:27.495Z,6.15
2017-12-27T05:23:27.497Z,6.19
2017-12-27T05:25:20.391Z,6.19
2017-12-27T05:26:20.406Z,6.15
2017-12-27T05:28:13.321Z,6.27
2017-12-27T05:29:13.315Z,6.27
2017-12-27T05:31:06.212Z,6.36
2017-12-27T05:32:06.225Z,6.27
2017-12-27T05:33:59.144Z,6.28
2017-12-27T05:34:59.142Z,6.27
2017-12-27T05:36:52.037Z,6.34
2017-12-27T05:37:52.072Z,6.31
2017-12-27T05:39:44.970Z,6.31
2017-12-27T05:40:44.967Z,6.46
2017-12-27T05:42:37.877Z,6.46
2017-12-27T05:43:37.875Z,6.52
2017-12-27T05:45:30.776Z,6.52
2017-12-27T05:46:30.788Z,6.44
2017-12-27T05:48:23.712Z,6.58
2017-12-27T05:49:23.711Z,6.44
2017-12-27T05:51:16.609Z,6.52
2017-12-27T05:52:16.623Z,6.49
2017-12-27T05:54:09.541Z,6.52
2017-12-27T05:55:09.537Z,6.58
2017-12-27T05:57:02.431Z,6.56
2017-12-27T05:58:02.446Z,6.64
2017-12-27T05:59:55.363Z,6.69
2017-12-27T06:00:55.359Z,6.69
2017-12-27T06:02:48.275Z,6.77
2017-12-27T06:03:48.276Z,6.73
2017-12-27T06:05:41.170Z,6.73
2017-12-27T06:06:41.185Z,6.74
2017-12-27T06:08:34.118Z,6.80
2017-12-27T06:09:34.107Z,6.79
2017-12-27T06:11:26.999Z,6.69
2017-12-27T06:12:27.017Z,6.87
2017-12-27T06:14:19.930Z,6.97
2017-12-27T06:15:19.926Z,6.88
2017-12-27T06:17:12.825Z,6.88
2017-12-27T06:18:12.840Z,6.91
2017-12-27T06:20:05.763Z,6.95
2017-12-27T06:21:05.752Z,6.97
2017-12-27T06:22:58.668Z,6.84
2017-12-27T06:23:58.665Z,6.97
2017-12-27T06:25:51.560Z,6.99
2017-12-27T06:26:51.574Z,7.03
2017-12-27T06:28:44.490Z,6.94
2017-12-27T06:29:44.489Z,6.97
2017-12-27T06:31:37.392Z,7.07
2017-12-27T06:32:37.410Z,7.05
2017-12-27T06:34:30.326Z,7.13
2017-12-27T06:35:30.323Z,7.10
2017-12-27T06:37:23.223Z,7.07
2017-12-27T06:38:23.238Z,7.12
2017-12-27T06:40:16.156Z,7.12
2017-12-27T06:41:16.152Z,7.07
2017-12-27T06:43:09.363Z,7.09
2017-12-27T06:44:09.368Z,6.94
2017-12-27T06:46:02.260Z,6.95
2017-12-27T06:47:02.274Z,7.05
2017-12-27T06:48:55.189Z,7.05
2017-12-27T06:49:55.187Z,7.09
2017-12-27T06:51:48.081Z,7.12
2017-12-27T06:52:48.099Z,7.07
2017-12-27T06:54:42.506Z,7.10
2017-12-27T06:55:42.506Z,7.06
2017-12-27T06:57:35.405Z,7.05
2017-12-27T06:58:35.421Z,7.02
2017-12-27T07:00:28.340Z,7.05
2017-12-27T07:01:28.339Z,7.05
2017-12-27T07:03:21.256Z,7.07
2017-12-27T07:04:21.254Z,7.07
2017-12-27T07:06:14.146Z,7.15
2017-12-27T07:07:14.163Z,7.06
2017-12-27T07:09:07.080Z,7.07
2017-12-27T07:10:07.079Z,7.07
2017-12-27T07:11:59.976Z,7.09
2017-12-27T07:12:59.989Z,6.92
2017-12-27T07:14:52.908Z,7.03
2017-12-27T07:15:52.903Z,6.88
2017-12-27T07:17:46.802Z,6.99
2017-12-27T07:18:46.811Z,6.92
2017-12-27T07:20:39.732Z,6.99
2017-12-27T07:21:39.723Z,6.98
2017-12-27T07:23:32.656Z,6.95
2017-12-27T07:24:32.641Z,6.98
2017-12-27T07:26:25.538Z,6.89
2017-12-27T07:27:25.553Z,6.92
2017-12-27T07:29:18.471Z,6.87
2017-12-27T07:30:18.467Z,6.89
2017-12-27T07:32:11.372Z,6.97
2017-12-27T07:33:11.377Z,6.81
2017-12-27T07:35:04.309Z,6.91
2017-12-27T07:36:04.290Z,6.80
2017-12-27T07:37:57.196Z,6.80
2017-12-27T07:38:57.209Z,6.80
2017-12-27T07:40:50.121Z,6.80
2017-12-27T07:41:50.120Z,6.85
2017-12-27T07:43:43.039Z,6.89
2017-12-27T07:44:43.036Z,6.79
2017-12-27T07:46:35.929Z,6.80
2017-12-27T07:47:35.944Z,6.76
2017-12-27T07:49:28.866Z,6.73
2017-12-27T07:50:28.863Z,6.71
2017-12-27T07:52:21.761Z,6.64
2017-12-27T07:53:21.776Z,6.70
2017-12-27T07:55:14.696Z,6.71
2017-12-27T07:56:14.689Z,6.76
2017-12-27T07:58:07.584Z,6.70
2017-12-27T07:59:07.602Z,6.54
2017-12-27T08:01:00.521Z,6.67
2017-12-27T08:02:00.517Z,6.64
2017-12-27T08:03:53.435Z,6.69
2017-12-27T08:04:53.429Z,6.70
2017-12-27T08:06:46.328Z,6.69
2017-12-27T08:07:46.344Z,6.70
2017-12-27T08:09:39.258Z,6.70
2017-12-27T08:10:39.258Z,6.69
2017-12-27T08:12:33.348Z,6.85
2017-12-27T08:13:33.365Z,6.77
2017-12-27T08:15:26.280Z,6.87
2017-12-27T08:16:26.278Z,6.85
2017-12-27T08:18:19.177Z,6.77
2017-12-27T08:19:19.198Z,6.80
2017-12-27T08:21:12.109Z,6.79
2017-12-27T08:22:12.105Z,6.87
2017-12-27T08:24:06.154Z,6.79
2017-12-27T08:25:06.154Z,6.85
2017-12-27T08:26:59.047Z,6.85
2017-12-27T08:27:59.064Z,6.85
2017-12-27T08:29:51.980Z,6.87
2017-12-27T08:30:52.036Z,6.98
2017-12-27T08:32:44.870Z,6.99
2017-12-27T08:33:44.888Z,6.92
2017-12-27T08:35:37.807Z,6.98
2017-12-27T08:36:37.806Z,6.95
2017-12-27T08:38:30.705Z,6.99
2017-12-27T08:39:30.725Z,6.99
2017-12-27T08:41:24.632Z,6.99
2017-12-27T08:42:24.631Z,6.88
2017-12-27T08:44:17.561Z,6.99
2017-12-27T08:45:17.542Z,6.91
2017-12-27T08:47:10.453Z,6.99
2017-12-27T08:48:10.458Z,6.98
2017-12-27T08:50:03.373Z,6.92
2017-12-27T08:51:03.371Z,7.05
2017-12-27T08:52:56.276Z,7.09
2017-12-27T08:53:56.284Z,7.02
2017-12-27T08:55:49.196Z,7.07
2017-12-27T08:56:49.196Z,7.06
2017-12-27T08:58:42.092Z,7.03
2017-12-27T08:59:42.108Z,7.10
2017-12-27T09:01:35.055Z,7.09
2017-12-27T09:02:35.022Z,7.13
2017-12-27T09:04:27.941Z,7.21
2017-12-27T09:05:27.937Z,7.15
2017-12-27T09:07:20.836Z,7.27
2017-12-27T09:08:20.852Z,7.21
2017-12-27T09:10:13.771Z,7.31
2017-12-27T09:11:13.770Z,7.28
2017-12-27T09:13:06.667Z,7.32
2017-12-27T09:14:06.686Z,7.40
2017-12-27T09:15:59.602Z,7.34
2017-12-27T09:16:59.600Z,7.31
2017-12-27T09:18:53.492Z,7.27
2017-12-27T09:19:53.512Z,7.40
2017-12-27T09:21:46.497Z,7.37
2017-12-27T09:22:46.452Z,7.30
2017-12-27T09:24:39.372Z,7.39
2017-12-27T09:25:39.372Z,7.50
2017-12-27T09:27:32.268Z,7.45
2017-12-27T09:28:32.284Z,7.48
2017-12-27T09:30:25.204Z,7.40
2017-12-27T09:31:25.198Z,7.45
2017-12-27T09:33:18.103Z,7.49
2017-12-27T09:34:18.120Z,7.43
2017-12-27T09:36:11.036Z,7.49
2017-12-27T09:37:11.033Z,7.49
2017-12-27T09:39:03.930Z,7.52
2017-12-27T09:40:03.947Z,7.58
2017-12-27T09:41:56.865Z,7.68
2017-12-27T09:42:56.867Z,7.69
2017-12-27T09:44:49.785Z,7.67
2017-12-27T09:45:49.778Z,7.69
2017-12-27T09:47:42.677Z,7.71
2017-12-27T09:48:42.695Z,7.69
2017-12-27T09:50:35.614Z,7.83
2017-12-27T09:51:35.612Z,7.92
2017-12-27T09:53:28.529Z,7.95
2017-12-27T09:54:28.556Z,8.01
2017-12-27T09:56:21.468Z,7.97
2017-12-27T09:57:21.467Z,7.97
2017-12-27T09:59:14.363Z,8.07
2017-12-27T10:00:14.381Z,8.18
2017-12-27T10:02:07.299Z,8.12
2017-12-27T10:03:07.297Z,8.22
2017-12-27T10:05:00.221Z,8.30
2017-12-27T10:06:00.222Z,8.33
2017-12-27T10:07:53.118Z,8.36
2017-12-27T10:08:53.136Z,8.37
2017-12-27T10:10:46.054Z,8.43
2017-12-27T10:11:46.052Z,8.30
2017-12-27T10:13:38.958Z,8.43
2017-12-27T10:14:38.981Z,8.40
2017-12-27T10:16:31.905Z,8.47
2017-12-27T10:17:31.899Z,8.52
2017-12-27T10:19:24.833Z,8.44
2017-12-27T10:20:24.846Z,8.55
2017-12-27T10:22:17.769Z,8.56
2017-12-27T10:23:17.762Z,8.52
2017-12-27T10:25:10.682Z,8.63
2017-12-27T10:26:10.680Z,8.48
2017-12-27T10:28:03.582Z,8.50
2017-12-27T10:29:03.598Z,8.41
2017-12-27T10:30:56.759Z,8.47
2017-12-27T10:31:56.761Z,8.48
2017-12-27T10:33:49.797Z,8.43
2017-12-27T10:34:49.814Z,8.53
2017-12-27T10:36:42.740Z,8.43
2017-12-27T10:37:42.735Z,8.44
2017-12-27T10:39:35.640Z,8.50
2017-12-27T10:40:35.659Z,8.44
2017-12-27T10:42:28.574Z,8.53
2017-12-27T10:43:28.573Z,8.47
2017-12-27T10:45:21.501Z,8.48
2017-12-27T10:46:21.494Z,8.48
2017-12-27T10:48:14.396Z,8.62
2017-12-27T10:49:14.438Z,8.66
2017-12-27T10:51:07.364Z,8.59
2017-12-27T10:52:07.363Z,8.53
2017-12-27T10:54:00.285Z,8.55
2017-12-27T10:55:00.312Z,8.53
2017-12-27T10:56:53.437Z,8.66
2017-12-27T10:57:53.442Z,8.70
2017-12-27T10:59:46.342Z,8.65
2017-12-27T11:00:46.355Z,8.73
2017-12-27T11:02:39.279Z,8.63
2017-12-27T11:03:39.275Z,8.65
2017-12-27T11:05:32.207Z,8.65
2017-12-27T11:06:32.190Z,8.81
2017-12-27T11:08:25.612Z,8.92
2017-12-27T11:09:25.628Z,8.94
2017-12-27T11:11:18.844Z,8.95
2017-12-27T11:12:18.891Z,8.95
2017-12-27T11:14:11.746Z,9.05
2017-12-27T11:15:11.766Z,8.99
2017-12-27T11:17:04.683Z,9.11
2017-12-27T11:18:04.683Z,9.14
2017-12-27T11:19:57.580Z,9.29
2017-12-27T11:20:57.603Z,9.32
2017-12-27T11:22:50.517Z,9.33
2017-12-27T11:23:50.520Z,9.31
2017-12-27T11:25:43.590Z,9.35
2017-12-27T11:26:43.597Z,9.35
2017-12-27T11:28:36.537Z,9.39
2017-12-27T11:29:36.519Z,9.43
2017-12-27T11:31:29.440Z,9.35
2017-12-27T11:32:29.439Z,9.32
2017-12-27T11:34:22.342Z,9.39
2017-12-27T11:35:22.357Z,9.23
2017-12-27T11:37:15.282Z,9.23
2017-12-27T11:38:15.279Z,9.29
2017-12-27T11:40:08.184Z,9.28
2017-12-27T11:41:08.205Z,9.31
2017-12-27T11:43:01.120Z,9.23
2017-12-27T11:44:01.117Z,9.20
2017-12-27T11:45:54.038Z,9.23
2017-12-27T11:46:54.037Z,9.17
2017-12-27T11:48:46.944Z,9.21
2017-12-27T11:49:46.959Z,9.15
2017-12-27T11:51:39.882Z,9.23
2017-12-27T11:52:39.881Z,9.13
2017-12-27T11:54:33.012Z,9.04
2017-12-27T11:55:33.030Z,9.04
2017-12-27T11:57:25.953Z,9.17
2017-12-27T11:58:25.949Z,9.11
2017-12-27T12:00:18.855Z,9.02
2017-12-27T12:01:18.881Z,9.10
2017-12-27T12:03:11.806Z,8.96
2017-12-27T12:04:11.849Z,8.91
2017-12-27T12:06:04.713Z,9.11
2017-12-27T12:07:04.722Z,9.18
2017-12-27T12:08:57.782Z,9.18
2017-12-27T12:09:57.801Z,9.18
2017-12-27T12:11:50.921Z,9.23
2017-12-27T12:12:51.100Z,9.24
2017-12-27T12:14:44.043Z,9.17
2017-12-27T12:15:44.098Z,9.28
2017-12-27T12:17:36.983Z,9.24
2017-12-27T12:18:36.986Z,9.24
2017-12-27T12:20:29.879Z,9.20
2017-12-27T12:21:29.896Z,9.33
2017-12-27T12:23:22.840Z,9.33
2017-12-27T12:24:22.817Z,9.46
2017-12-27T12:26:23.842Z,9.42
2017-12-27T12:27:16.725Z,9.46
2017-12-27T12:29:09.629Z,9.38
2017-12-27T12:30:09.642Z,9.33
2017-12-27T12:32:02.562Z,9.33
2017-12-27T12:33:02.563Z,9.29
2017-12-27T12:34:55.462Z,9.33
2017-12-27T12:35:55.482Z,9.31
2017-12-27T12:37:48.397Z,9.36
2017-12-27T12:38:48.398Z,9.35
2017-12-27T12:40:41.301Z,9.36
2017-12-27T12:41:41.319Z,9.21
2017-12-27T12:43:34.239Z,9.20
2017-12-27T12:44:34.243Z,9.28
2017-12-27T12:46:27.156Z,9.24
2017-12-27T12:47:27.157Z,9.29
2017-12-27T12:49:20.058Z,9.23
2017-12-27T12:50:20.076Z,9.24
2017-12-27T12:52:13.000Z,9.26
2017-12-27T12:53:12.997Z,9.24
2017-12-27T12:55:05.900Z,9.15
2017-12-27T12:56:05.916Z,9.21
2017-12-27T12:57:58.832Z,9.28
2017-12-27T12:58:58.852Z,9.21
2017-12-27T13:00:51.732Z,9.29
2017-12-27T13:01:51.750Z,9.23
2017-12-27T13:03:44.673Z,9.11
2017-12-27T13:04:44.675Z,9.14
2017-12-27T13:06:37.593Z,9.15
2017-12-27T13:07:37.597Z,9.11
2017-12-27T13:09:30.497Z,9.15
2017-12-27T13:10:30.511Z,9.15
2017-12-27T13:12:23.431Z,9.13
2017-12-27T13:13:23.433Z,9.08
2017-12-27T13:15:16.332Z,9.05
2017-12-27T13:16:16.355Z,8.92
2017-12-27T13:18:09.271Z,8.99
2017-12-27T13:19:09.271Z,9.04
2017-12-27T13:21:02.169Z,8.96
2017-12-27T13:22:02.186Z,8.98
2017-12-27T13:23:55.106Z,8.95
2017-12-27T13:24:55.105Z,8.99
2017-12-27T13:26:48.045Z,9.02
2017-12-27T13:27:48.025Z,9.01
2017-12-27T13:29:40.930Z,9.05
2017-12-27T13:30:40.950Z,9.04
2017-12-27T13:32:33.868Z,9.04
2017-12-27T13:33:33.873Z,9.10
2017-12-27T13:35:26.770Z,9.14
2017-12-27T13:36:26.788Z,9.11
2017-12-27T13:38:19.707Z,9.08
2017-12-27T13:39:19.708Z,9.13
2017-12-27T13:41:12.607Z,9.08
2017-12-27T13:42:12.623Z,9.05
2017-12-27T13:44:05.546Z,9.10
2017-12-27T13:45:05.542Z,9.13
2017-12-27T13:46:58.468Z,9.11
2017-12-27T13:47:58.461Z,9.15
2017-12-27T13:49:51.370Z,9.15
2017-12-27T13:50:51.385Z,9.17
2017-12-27T13:52:44.307Z,9.13
2017-12-27T13:53:44.305Z,9.11
2017-12-27T13:55:37.214Z,9.24
2017-12-27T13:56:37.224Z,9.23
2017-12-27T13:58:30.138Z,9.21
2017-12-27T13:59:30.139Z,9.20
2017-12-27T14:01:23.049Z,9.21
2017-12-27T14:02:23.068Z,9.23
2017-12-27T14:04:15.986Z,9.23
2017-12-27T14:05:15.985Z,9.24
2017-12-27T14:07:08.886Z,9.31
2017-12-27T14:08:08.904Z,9.28
2017-12-27T14:10:01.829Z,9.21
2017-12-27T14:11:01.826Z,9.20
2017-12-27T14:12:54.746Z,9.24
2017-12-27T14:13:54.747Z,9.20
2017-12-27T14:15:47.644Z,9.23
2017-12-27T14:16:47.661Z,9.26
2017-12-27T14:18:40.584Z,9.24
2017-12-27T14:19:40.587Z,9.23
2017-12-27T14:21:33.482Z,9.26
2017-12-27T14:22:33.502Z,9.28
2017-12-27T14:24:26.421Z,9.31
2017-12-27T14:25:26.421Z,9.23
2017-12-27T14:27:19.324Z,9.33
2017-12-27T14:28:19.477Z,9.32
2017-12-27T14:30:12.265Z,9.29
2017-12-27T14:31:12.264Z,9.23
2017-12-27T14:33:05.186Z,9.21
2017-12-27T14:34:05.184Z,9.29
2017-12-27T14:35:58.087Z,9.20
2017-12-27T14:36:58.105Z,9.20
2017-12-27T14:38:51.028Z,9.26
2017-12-27T14:39:51.025Z,9.29
2017-12-27T14:41:43.923Z,9.20
2017-12-27T14:42:43.944Z,9.29
2017-12-27T14:44:36.869Z,9.32
2017-12-27T14:45:36.865Z,9.23
2017-12-27T14:47:29.763Z,9.23
2017-12-27T14:48:29.779Z,9.20
2017-12-27T14:50:22.702Z,9.21
2017-12-27T14:51:22.699Z,9.23
2017-12-27T14:53:15.624Z,9.24
2017-12-27T14:54:15.623Z,9.23
2017-12-27T14:56:08.548Z,9.31
2017-12-27T14:57:08.558Z,9.29
2017-12-27T14:59:02.367Z,9.21
2017-12-27T15:00:01.474Z,9.23
2017-12-27T15:01:54.383Z,9.14
2017-12-27T15:02:54.398Z,9.23
2017-12-27T15:04:47.323Z,9.14
2017-12-27T15:05:47.323Z,9.14
2017-12-27T15:07:40.272Z,9.14
2017-12-27T15:08:40.241Z,9.18
2017-12-27T15:10:33.145Z,9.14
2017-12-27T15:11:33.168Z,9.15
2017-12-27T15:13:26.082Z,9.17
2017-12-27T15:14:26.083Z,9.11
2017-12-27T15:16:19.121Z,9.17
2017-12-27T15:17:19.045Z,9.17
2017-12-27T15:19:11.976Z,9.18
2017-12-27T15:20:11.937Z,9.13
2017-12-27T15:22:04.841Z,9.20
2017-12-27T15:23:04.862Z,9.20
2017-12-27T15:24:57.795Z,9.23
2017-12-27T15:25:57.786Z,9.13
2017-12-27T15:27:50.712Z,9.18
2017-12-27T15:28:50.704Z,9.14
2017-12-27T15:30:43.625Z,9.14
2017-12-27T15:31:43.633Z,9.10
2017-12-27T15:33:36.562Z,9.11
2017-12-27T15:34:36.545Z,9.15
2017-12-27T15:36:29.443Z,9.15
2017-12-27T15:37:29.461Z,9.18
2017-12-27T15:39:22.377Z,9.15
2017-12-27T15:40:22.376Z,9.15
2017-12-27T15:42:15.276Z,9.11
2017-12-27T15:43:15.351Z,9.13
2017-12-27T15:45:09.413Z,9.08
2017-12-27T15:46:09.411Z,9.10
2017-12-27T15:48:02.365Z,9.05
2017-12-27T15:49:02.326Z,8.95
2017-12-27T15:50:55.248Z,9.02
2017-12-27T15:51:55.246Z,9.02
2017-12-27T15:53:48.236Z,9.01
2017-12-27T15:54:48.166Z,8.96
2017-12-27T15:56:41.062Z,8.91
2017-12-27T15:57:41.082Z,8.96
2017-12-27T15:59:34.998Z,8.92
2017-12-27T16:00:34.999Z,8.83
2017-12-27T16:02:27.899Z,8.76
2017-12-27T16:03:27.918Z,8.76
2017-12-27T16:05:21.832Z,8.77
2017-12-27T16:06:21.831Z,8.80
2017-12-27T16:08:14.748Z,8.87
2017-12-27T16:09:14.769Z,8.66
2017-12-27T16:11:07.686Z,8.68
2017-12-27T16:12:07.683Z,8.70
2017-12-27T16:14:00.626Z,8.66
2017-12-27T16:15:00.605Z,8.63
2017-12-27T16:16:53.514Z,8.68
2017-12-27T16:17:53.535Z,8.65
2017-12-27T16:19:46.449Z,8.48
2017-12-27T16:20:46.452Z,8.53
2017-12-27T16:22:39.349Z,8.45
2017-12-27T16:23:39.367Z,8.47
2017-12-27T16:25:32.288Z,8.52
2017-12-27T16:26:32.290Z,8.43
2017-12-27T16:28:25.199Z,8.45
2017-12-27T16:29:25.217Z,8.34
2017-12-27T16:31:18.142Z,8.37
2017-12-27T16:32:18.138Z,8.33
2017-12-27T16:34:11.059Z,8.28
2017-12-27T16:35:11.054Z,8.23
2017-12-27T16:37:03.962Z,8.19
2017-12-27T16:38:03.973Z,8.15
2017-12-27T16:39:56.891Z,8.12
2017-12-27T16:40:56.888Z,8.08
2017-12-27T16:42:49.795Z,8.01
2017-12-27T16:43:49.808Z,7.97
2017-12-27T16:45:42.733Z,7.97
2017-12-27T16:46:42.727Z,8.04
2017-12-27T16:48:35.624Z,7.93
2017-12-27T16:49:35.643Z,7.89
2017-12-27T16:51:28.559Z,7.98
2017-12-27T16:52:28.558Z,8.01
2017-12-27T16:54:21.475Z,8.02
2017-12-27T16:55:21.476Z,8.00
2017-12-27T16:57:14.374Z,7.97
2017-12-27T16:58:14.391Z,7.97
2017-12-27T17:00:07.309Z,7.87
2017-12-27T17:01:07.309Z,7.95
2017-12-27T17:03:00.206Z,7.93
2017-12-27T17:04:00.227Z,7.92
2017-12-27T17:05:53.166Z,7.87
2017-12-27T17:06:53.164Z,7.93
2017-12-27T17:08:47.061Z,7.92
2017-12-27T17:09:47.080Z,7.90
2017-12-27T17:11:40.537Z,7.92
2017-12-27T17:12:39.998Z,7.85
2017-12-27T17:14:32.917Z,7.92
2017-12-27T17:15:32.917Z,7.92
2017-12-27T17:17:25.828Z,7.85
2017-12-27T17:18:25.835Z,7.83
2017-12-27T17:20:18.760Z,7.75
2017-12-27T17:21:18.797Z,7.82
2017-12-27T17:23:11.662Z,7.79
2017-12-27T17:24:11.816Z,7.79
2017-12-27T17:26:05.593Z,7.71
2017-12-27T17:27:05.587Z,7.68
2017-12-27T17:28:58.487Z,7.74
2017-12-27T17:29:58.505Z,7.75
2017-12-27T17:31:51.424Z,7.74
2017-12-27T17:32:51.422Z,7.64
2017-12-27T17:34:44.344Z,7.57
2017-12-27T17:35:44.344Z,7.68
2017-12-27T17:37:37.241Z,7.63
2017-12-27T17:38:37.259Z,7.46
2017-12-27T17:40:30.179Z,7.53
2017-12-27T17:41:30.175Z,7.48
2017-12-27T17:43:23.747Z,7.45
2017-12-27T17:44:23.093Z,7.35
2017-12-27T17:46:17.003Z,7.27
2017-12-27T17:47:17.003Z,7.30
2017-12-27T17:49:09.900Z,7.28
2017-12-27T17:50:09.917Z,7.21
2017-12-27T17:52:02.835Z,7.24
2017-12-27T17:53:02.834Z,7.16
2017-12-27T17:54:55.747Z,7.10
2017-12-27T17:55:55.743Z,7.15
2017-12-27T17:57:48.645Z,7.09
2017-12-27T17:58:48.663Z,7.10
2017-12-27T18:00:41.577Z,7.10
2017-12-27T18:01:41.577Z,7.06
2017-12-27T18:03:34.473Z,6.91
2017-12-27T18:04:34.491Z,7.09
2017-12-27T18:06:27.409Z,6.95
2017-12-27T18:07:27.408Z,6.88
2017-12-27T18:09:20.306Z,7.02
2017-12-27T18:10:20.320Z,6.89
2017-12-27T18:12:13.235Z,6.89
2017-12-27T18:13:13.235Z,6.91
2017-12-27T18:15:06.253Z,6.89
2017-12-27T18:16:06.172Z,6.92
2017-12-27T18:17:59.141Z,6.85
2017-12-27T18:18:59.228Z,6.80
2017-12-27T18:20:51.987Z,6.85
2017-12-27T18:21:51.984Z,6.80
2017-12-27T18:23:44.939Z,6.94
2017-12-27T18:24:44.949Z,6.85
2017-12-27T18:26:37.810Z,6.80
2017-12-27T18:27:37.828Z,6.77
2017-12-27T18:29:30.706Z,6.73
2017-12-27T18:30:30.722Z,6.71
2017-12-27T18:32:23.635Z,6.66
2017-12-27T18:33:23.638Z,6.69
2017-12-27T18:35:16.552Z,6.69
2017-12-27T18:36:16.548Z,6.59
2017-12-27T18:38:09.446Z,6.54
2017-12-27T18:39:09.463Z,6.44
2017-12-27T18:41:02.376Z,6.56
2017-12-27T18:42:02.373Z,6.41
2017-12-27T18:43:55.464Z,6.48
2017-12-27T18:44:55.498Z,6.31
2017-12-27T18:46:48.409Z,6.37
2017-12-27T18:47:48.416Z,6.31
2017-12-27T18:49:41.308Z,6.25
2017-12-27T18:50:41.322Z,6.22
2017-12-27T18:52:34.262Z,6.19
2017-12-27T18:53:34.260Z,6.15
2017-12-27T18:55:27.202Z,6.14
2017-12-27T18:56:27.380Z,6.11
2017-12-27T18:58:20.094Z,6.11
2017-12-27T18:59:20.110Z,6.03
2017-12-27T19:01:13.027Z,5.99
2017-12-27T19:02:13.024Z,6.00
2017-12-27T19:04:05.925Z,5.97
2017-12-27T19:05:05.936Z,5.96
2017-12-27T19:06:58.916Z,5.94
2017-12-27T19:07:58.848Z,5.94
2017-12-27T19:09:51.752Z,5.83
2017-12-27T19:10:51.841Z,5.90